createdAt,value
2019-03-27T00:00:37.136Z,20.17
2019-03-27T00:05:57.904Z,15.47
2019-03-27T00:11:18.927Z,18.03
2019-03-27T00:16:39.707Z,18.43
2019-03-27T00:22:00.847Z,18.83
2019-03-27T00:27:21.372Z,16.30
2019-03-27T00:32:42.303Z,17.77
2019-03-27T00:38:03.591Z,12.00
2019-03-27T00:43:24.692Z,12.80
2019-03-27T00:48:45.222Z,12.47
2019-03-27T00:54:06.468Z,15.60
2019-03-27T00:59:29.490Z,14.33
2019-03-27T01:04:50.406Z,20.37
2019-03-27T01:10:12.050Z,18.07
2019-03-27T01:15:39.655Z,18.33
2019-03-27T01:20:55.899Z,17.30
2019-03-27T01:26:17.841Z,16.30
2019-03-27T01:31:38.877Z,16.23
2019-03-27T01:37:00.248Z,22.90
2019-03-27T01:42:21.335Z,16.47
2019-03-27T01:47:42.671Z,14.47
2019-03-27T01:53:03.469Z,18.23
2019-03-27T01:58:24.633Z,17.07
2019-03-27T02:03:45.690Z,17.07
2019-03-27T02:09:07.240Z,13.77
2019-03-27T02:14:28.672Z,15.03
2019-03-27T02:19:49.560Z,19.00
2019-03-27T02:25:11.185Z,15.13
2019-03-27T02:30:32.053Z,15.10
2019-03-27T02:35:53.483Z,14.20
2019-03-27T02:41:14.597Z,15.37
2019-03-27T02:46:35.806Z,14.73
2019-03-27T02:51:56.728Z,14.23
2019-03-27T02:57:17.544Z,14.60
2019-03-27T03:02:38.727Z,11.90
2019-03-27T03:07:59.891Z,14.30
2019-03-27T03:13:21.203Z,15.07
2019-03-27T03:18:42.322Z,12.80
2019-03-27T03:24:03.689Z,18.00
2019-03-27T03:29:24.765Z,11.57
2019-03-27T03:34:45.918Z,17.50
2019-03-27T03:40:07.741Z,15.97
2019-03-27T03:45:28.767Z,17.57
2019-03-27T03:50:51.885Z,13.30
2019-03-27T03:56:13.976Z,15.63
2019-03-27T04:01:36.357Z,17.53
2019-03-27T04:06:56.807Z,15.67
2019-03-27T04:12:18.025Z,15.83
2019-03-27T04:17:39.164Z,21.10
2019-03-27T04:23:00.075Z,13.03
2019-03-27T04:28:21.515Z,14.70
2019-03-27T04:33:42.775Z,15.37
2019-03-27T04:39:04.921Z,14.47
2019-03-27T04:44:25.779Z,17.20
2019-03-27T04:49:46.889Z,15.60
2019-03-27T04:55:07.887Z,19.50
2019-03-27T05:00:29.147Z,16.70
2019-03-27T05:05:50.304Z,22.57
2019-03-27T05:11:11.496Z,23.83
2019-03-27T05:16:32.974Z,24.47
2019-03-27T05:21:53.939Z,24.73
2019-03-27T05:27:14.792Z,26.23
2019-03-27T05:32:35.904Z,26.67
2019-03-27T05:37:56.812Z,22.33
2019-03-27T05:43:17.867Z,26.97
2019-03-27T05:48:38.651Z,23.03
2019-03-27T05:53:59.871Z,28.10
2019-03-27T05:59:20.983Z,29.47
2019-03-27T06:04:42.272Z,26.30
2019-03-27T06:10:03.958Z,24.70
2019-03-27T06:15:25.974Z,29.90
2019-03-27T06:20:47.133Z,22.67
2019-03-27T06:26:08.455Z,21.33
2019-03-27T06:31:29.794Z,21.67
2019-03-27T06:36:50.915Z,22.27
2019-03-27T06:42:12.274Z,21.00
2019-03-27T06:47:32.876Z,22.03
2019-03-27T06:52:54.009Z,20.97
2019-03-27T06:58:14.637Z,25.33
2019-03-27T07:03:35.452Z,22.07
2019-03-27T07:08:56.706Z,21.87
2019-03-27T07:14:17.849Z,27.07
2019-03-27T07:19:38.822Z,22.67
2019-03-27T07:25:00.020Z,23.33
2019-03-27T07:30:21.441Z,24.43
2019-03-27T07:35:42.889Z,21.10
2019-03-27T07:41:04.625Z,22.63
2019-03-27T07:46:25.534Z,19.33
2019-03-27T07:51:46.350Z,26.17
2019-03-27T07:57:07.510Z,25.97
2019-03-27T08:02:28.913Z,22.43
2019-03-27T08:07:50.257Z,24.20
2019-03-27T08:13:11.537Z,26.90
2019-03-27T08:18:32.742Z,22.43
2019-03-27T08:23:53.884Z,27.60
2019-03-27T08:29:15.272Z,20.87
2019-03-27T08:34:36.354Z,22.17
2019-03-27T08:39:57.542Z,21.23
2019-03-27T08:45:18.758Z,23.07
2019-03-27T08:50:39.796Z,21.50
2019-03-27T08:56:01.166Z,23.93
2019-03-27T09:01:22.326Z,18.90
2019-03-27T09:06:44.702Z,19.83
2019-03-27T09:12:05.542Z,21.83
2019-03-27T09:17:26.736Z,20.90
2019-03-27T09:22:47.850Z,21.67
2019-03-27T09:28:08.684Z,20.43
2019-03-27T09:33:29.625Z,21.13
2019-03-27T09:38:50.752Z,21.50
2019-03-27T09:44:12.201Z,18.80
2019-03-27T09:49:33.568Z,19.93
2019-03-27T09:54:54.976Z,17.30
2019-03-27T10:00:20.488Z,17.47
2019-03-27T10:05:41.493Z,22.37
2019-03-27T10:11:02.937Z,21.83
2019-03-27T10:16:23.662Z,24.53
2019-03-27T10:21:45.049Z,20.30
2019-03-27T10:27:06.133Z,15.40
2019-03-27T10:32:26.969Z,17.60
2019-03-27T10:37:47.761Z,14.07
2019-03-27T10:43:08.567Z,13.97
2019-03-27T10:48:29.581Z,15.03
2019-03-27T10:53:50.664Z,12.00
2019-03-27T10:59:11.547Z,14.60
2019-03-27T11:04:32.829Z,11.90
2019-03-27T11:09:54.075Z,9.43
2019-03-27T11:15:15.612Z,9.50
2019-03-27T11:20:37.325Z,7.73
2019-03-27T11:25:58.451Z,10.30
2019-03-27T11:31:19.133Z,8.80
2019-03-27T11:36:40.042Z,9.27
2019-03-27T11:42:01.331Z,5.90
2019-03-27T11:47:22.567Z,8.03
2019-03-27T11:52:43.378Z,9.63
2019-03-27T11:58:04.973Z,10.73
2019-03-27T12:03:25.511Z,10.40
2019-03-27T12:08:46.795Z,8.03
2019-03-27T12:14:08.026Z,7.77
2019-03-27T12:19:29.032Z,7.60
2019-03-27T12:24:49.617Z,7.03
2019-03-27T12:30:11.168Z,7.67
2019-03-27T12:35:32.224Z,7.63
2019-03-27T12:40:54.241Z,7.37
2019-03-27T12:46:15.469Z,7.97
2019-03-27T12:51:36.188Z,7.43
2019-03-27T12:56:57.426Z,9.47
2019-03-27T13:02:18.592Z,6.60
2019-03-27T13:07:49.788Z,5.23
2019-03-27T13:13:02.705Z,5.70
2019-03-27T13:18:23.772Z,6.57
2019-03-27T13:23:45.115Z,5.30
2019-03-27T13:29:06.037Z,7.70
2019-03-27T13:34:27.238Z,7.87
2019-03-27T13:39:48.310Z,7.67
2019-03-27T13:45:10.173Z,6.30
2019-03-27T13:50:30.958Z,7.53
2019-03-27T13:55:51.982Z,7.63
2019-03-27T14:01:13.106Z,7.80
2019-03-27T14:06:34.411Z,7.67
2019-03-27T14:11:55.658Z,10.50
2019-03-27T14:17:16.534Z,11.60
2019-03-27T14:22:38.203Z,8.73
2019-03-27T14:27:58.746Z,7.47
2019-03-27T14:33:20.136Z,10.57
2019-03-27T14:38:40.885Z,8.57
2019-03-27T14:44:02.225Z,11.57
2019-03-27T14:49:22.912Z,12.17
2019-03-27T14:54:43.947Z,13.90
2019-03-27T15:00:07.228Z,15.07
2019-03-27T15:05:29.138Z,15.17
2019-03-27T15:10:49.939Z,13.17
2019-03-27T15:16:11.076Z,12.77
2019-03-27T15:21:32.166Z,12.00
2019-03-27T15:26:53.411Z,10.37
2019-03-27T15:32:14.514Z,11.57
2019-03-27T15:37:35.577Z,11.50
2019-03-27T15:42:56.731Z,10.67
2019-03-27T15:48:17.960Z,10.77
2019-03-27T15:53:39.042Z,11.50
2019-03-27T15:59:00.116Z,13.30
2019-03-27T16:04:20.861Z,10.63
2019-03-27T16:09:41.929Z,10.00
2019-03-27T16:15:03.218Z,12.23
2019-03-27T16:20:24.255Z,13.00
2019-03-27T16:25:45.028Z,11.40
2019-03-27T16:31:06.270Z,13.57
2019-03-27T16:36:27.595Z,10.30
2019-03-27T16:41:48.669Z,10.37
2019-03-27T16:47:09.874Z,10.67
2019-03-27T16:52:30.834Z,13.83
2019-03-27T16:57:52.215Z,11.40
2019-03-27T17:03:13.299Z,10.93
2019-03-27T17:08:34.271Z,11.93
2019-03-27T17:13:55.093Z,11.60
2019-03-27T17:19:15.737Z,11.47
2019-03-27T17:24:37.088Z,13.80
2019-03-27T17:29:58.170Z,11.63
2019-03-27T17:35:18.883Z,61.30
2019-03-27T17:40:40.067Z,10.20
2019-03-27T17:46:01.136Z,11.80
2019-03-27T17:51:22.264Z,11.17
2019-03-27T17:56:43.015Z,13.90
2019-03-27T18:02:04.083Z,11.67
2019-03-27T18:07:25.913Z,12.93
2019-03-27T18:12:47.248Z,9.83
2019-03-27T18:18:08.430Z,12.20
2019-03-27T18:23:29.216Z,12.10
2019-03-27T18:28:49.826Z,11.90
2019-03-27T18:34:10.608Z,12.67
2019-03-27T18:39:31.331Z,11.43
2019-03-27T18:44:51.987Z,13.40
2019-03-27T18:50:13.602Z,11.27
2019-03-27T18:55:34.272Z,12.00
2019-03-27T19:00:54.910Z,11.17
2019-03-27T19:06:15.691Z,15.67
2019-03-27T19:11:36.488Z,11.60
2019-03-27T19:16:57.604Z,13.83
2019-03-27T19:22:18.861Z,13.30
2019-03-27T19:27:40.053Z,14.27
2019-03-27T19:33:01.349Z,15.93
2019-03-27T19:38:22.444Z,10.97
2019-03-27T19:43:43.613Z,13.27
2019-03-27T19:49:05.529Z,15.17
2019-03-27T19:54:27.625Z,11.80
2019-03-27T19:59:49.092Z,12.83
2019-03-27T20:05:11.616Z,10.80
2019-03-27T20:10:32.690Z,11.50
2019-03-27T20:15:53.560Z,15.50
2019-03-27T20:21:14.800Z,11.70
2019-03-27T20:26:35.642Z,9.73
2019-03-27T20:31:57.024Z,13.20
2019-03-27T20:37:17.983Z,12.47
2019-03-27T20:42:38.487Z,14.03
2019-03-27T20:47:59.963Z,11.93
2019-03-27T20:53:20.830Z,12.73
2019-03-27T20:58:41.692Z,12.33
2019-03-27T21:04:02.710Z,13.00
2019-03-27T21:09:24.781Z,12.00
2019-03-27T21:14:45.489Z,11.83
2019-03-27T21:20:08.178Z,13.13
2019-03-27T21:25:29.330Z,11.87
2019-03-27T21:30:50.038Z,12.43
2019-03-27T21:36:10.765Z,14.73
2019-03-27T21:41:31.934Z,10.17
2019-03-27T21:46:53.122Z,10.13
2019-03-27T21:52:14.070Z,10.90
2019-03-27T21:57:35.474Z,13.10
2019-03-27T22:02:56.167Z,10.83
2019-03-27T22:08:18.158Z,14.17
2019-03-27T22:13:39.606Z,13.43
2019-03-27T22:19:00.645Z,14.03
2019-03-27T22:24:21.779Z,14.80
2019-03-27T22:29:42.886Z,14.13
2019-03-27T22:35:04.417Z,12.50
2019-03-27T22:40:25.298Z,14.80
2019-03-27T22:45:46.148Z,13.47
2019-03-27T22:51:07.319Z,14.00
2019-03-27T22:56:28.192Z,13.20
2019-03-27T23:01:49.884Z,14.73
2019-03-27T23:07:11.063Z,12.90
2019-03-27T23:12:32.295Z,15.47
2019-03-27T23:17:54.504Z,16.03
2019-03-27T23:23:15.758Z,14.77
2019-03-27T23:28:36.876Z,12.83
2019-03-27T23:34:00.362Z,13.27
2019-03-27T23:39:20.646Z,11.47
2019-03-27T23:44:42.158Z,16.17
2019-03-27T23:50:04.959Z,14.30
2019-03-27T23:55:26.089Z,18.47
